sensor_id;sensor_type;location;lat;lon;timestamp;pressure;altitude;pressure_sealevel;temperature;humidity
62946;BME280;52164;52.212;-1.010;2023-04-27T00:01:48;100915.76;;;7.27;62.51
62946;BME280;52164;52.212;-1.010;2023-04-27T00:04:14;100919.06;;;7.24;62.66
62946;BME280;52164;52.212;-1.010;2023-04-27T00:06:41;100916.30;;;7.19;62.39
62946;BME280;52164;52.212;-1.010;2023-04-27T00:09:06;100913.55;;;7.16;62.38
62946;BME280;52164;52.212;-1.010;2023-04-27T00:11:31;100916.02;;;7.14;62.63
62946;BME280;52164;52.212;-1.010;2023-04-27T00:13:57;100913.69;;;7.13;62.93
62946;BME280;52164;52.212;-1.010;2023-04-27T00:16:22;100905.83;;;7.11;63.01
62946;BME280;52164;52.212;-1.010;2023-04-27T00:18:48;100903.45;;;7.08;63.34
62946;BME280;52164;52.212;-1.010;2023-04-27T00:21:14;100901.80;;;7.04;63.28
62946;BME280;52164;52.212;-1.010;2023-04-27T00:23:39;100902.08;;;7.01;63.52
62946;BME280;52164;52.212;-1.010;2023-04-27T00:26:05;100899.71;;;6.98;63.58
62946;BME280;52164;52.212;-1.010;2023-04-27T00:28:30;100896.79;;;6.94;63.28
62946;BME280;52164;52.212;-1.010;2023-04-27T00:30:55;100892.27;;;6.91;63.59
62946;BME280;52164;52.212;-1.010;2023-04-27T00:33:21;100890.63;;;6.87;63.56
62946;BME280;52164;52.212;-1.010;2023-04-27T00:35:46;100888.61;;;6.84;64.04
62946;BME280;52164;52.212;-1.010;2023-04-27T00:38:15;100884.60;;;6.79;64.17
62946;BME280;52164;52.212;-1.010;2023-04-27T00:40:40;100876.66;;;6.74;64.26
62946;BME280;52164;52.212;-1.010;2023-04-27T00:43:05;100874.27;;;6.69;64.34
62946;BME280;52164;52.212;-1.010;2023-04-27T00:45:30;100872.72;;;6.63;64.21
62946;BME280;52164;52.212;-1.010;2023-04-27T00:47:56;100875.65;;;6.59;64.58
62946;BME280;52164;52.212;-1.010;2023-04-27T00:50:26;100874.67;;;6.55;64.54
62946;BME280;52164;52.212;-1.010;2023-04-27T00:52:53;100867.68;;;6.51;64.86
62946;BME280;52164;52.212;-1.010;2023-04-27T00:55:19;100866.18;;;6.48;64.92
62946;BME280;52164;52.212;-1.010;2023-04-27T00:57:44;100863.09;;;6.45;64.83
62946;BME280;52164;52.212;-1.010;2023-04-27T01:00:11;100859.98;;;6.41;65.34
62946;BME280;52164;52.212;-1.010;2023-04-27T01:02:37;100853.49;;;6.36;65.39
62946;BME280;52164;52.212;-1.010;2023-04-27T01:05:02;100852.52;;;6.32;65.57
62946;BME280;52164;52.212;-1.010;2023-04-27T01:07:28;100852.08;;;6.27;65.62
62946;BME280;52164;52.212;-1.010;2023-04-27T01:09:53;100849.65;;;6.23;65.73
62946;BME280;52164;52.212;-1.010;2023-04-27T01:12:19;100848.87;;;6.20;66.00
62946;BME280;52164;52.212;-1.010;2023-04-27T01:14:45;100846.32;;;6.15;65.77
62946;BME280;52164;52.212;-1.010;2023-04-27T01:17:10;100844.66;;;6.13;66.06
62946;BME280;52164;52.212;-1.010;2023-04-27T01:19:35;100846.37;;;6.10;66.00
62946;BME280;52164;52.212;-1.010;2023-04-27T01:22:01;100844.00;;;6.08;66.37
62946;BME280;52164;52.212;-1.010;2023-04-27T01:24:26;100848.01;;;6.05;66.54
62946;BME280;52164;52.212;-1.010;2023-04-27T01:26:51;100853.06;;;6.02;66.54
62946;BME280;52164;52.212;-1.010;2023-04-27T01:29:18;100855.83;;;5.98;66.62
62946;BME280;52164;52.212;-1.010;2023-04-27T01:31:43;100857.46;;;5.95;66.63
62946;BME280;52164;52.212;-1.010;2023-04-27T01:34:08;100863.73;;;5.90;66.64
62946;BME280;52164;52.212;-1.010;2023-04-27T01:36:34;100869.81;;;5.85;66.81
62946;BME280;52164;52.212;-1.010;2023-04-27T01:38:59;100872.33;;;5.79;66.69
62946;BME280;52164;52.212;-1.010;2023-04-27T01:41:25;100872.68;;;5.72;66.86
62946;BME280;52164;52.212;-1.010;2023-04-27T01:43:50;100871.26;;;5.65;67.18
62946;BME280;52164;52.212;-1.010;2023-04-27T01:46:16;100873.41;;;5.59;67.47
62946;BME280;52164;52.212;-1.010;2023-04-27T01:48:41;100876.11;;;5.55;67.74
62946;BME280;52164;52.212;-1.010;2023-04-27T01:51:07;100875.65;;;5.51;67.94
62946;BME280;52164;52.212;-1.010;2023-04-27T01:53:32;100875.95;;;5.48;68.01
62946;BME280;52164;52.212;-1.010;2023-04-27T01:55:58;100875.86;;;5.44;68.12
62946;BME280;52164;52.212;-1.010;2023-04-27T01:58:23;100878.55;;;5.39;68.10
62946;BME280;52164;52.212;-1.010;2023-04-27T02:00:49;100883.07;;;5.36;68.00
62946;BME280;52164;52.212;-1.010;2023-04-27T02:03:14;100889.66;;;5.31;67.79
62946;BME280;52164;52.212;-1.010;2023-04-27T02:05:40;100886.02;;;5.27;68.12
62946;BME280;52164;52.212;-1.010;2023-04-27T02:08:05;100886.95;;;5.23;68.27
62946;BME280;52164;52.212;-1.010;2023-04-27T02:10:31;100886.33;;;5.20;68.53
62946;BME280;52164;52.212;-1.010;2023-04-27T02:12:56;100889.45;;;5.17;68.63
62946;BME280;52164;52.212;-1.010;2023-04-27T02:15:22;100886.70;;;5.14;69.05
62946;BME280;52164;52.212;-1.010;2023-04-27T02:17:47;100883.06;;;5.10;68.83
62946;BME280;52164;52.212;-1.010;2023-04-27T02:20:12;100881.56;;;5.07;68.74
62946;BME280;52164;52.212;-1.010;2023-04-27T02:22:40;100883.98;;;5.05;69.02
62946;BME280;52164;52.212;-1.010;2023-04-27T02:25:07;100887.63;;;5.03;69.28
62946;BME280;52164;52.212;-1.010;2023-04-27T02:27:32;100888.45;;;5.00;69.39
62946;BME280;52164;52.212;-1.010;2023-04-27T02:29:57;100889.27;;;4.98;69.44
62946;BME280;52164;52.212;-1.010;2023-04-27T02:32:23;100886.41;;;4.97;69.45
62946;BME280;52164;52.212;-1.010;2023-04-27T02:34:48;100886.55;;;4.96;69.53
62946;BME280;52164;52.212;-1.010;2023-04-27T02:37:13;100882.43;;;4.94;69.56
62946;BME280;52164;52.212;-1.010;2023-04-27T02:39:41;100879.18;;;4.92;69.58
62946;BME280;52164;52.212;-1.010;2023-04-27T02:42:06;100874.27;;;4.93;69.60
62946;BME280;52164;52.212;-1.010;2023-04-27T02:44:31;100869.66;;;4.93;69.55
62946;BME280;52164;52.212;-1.010;2023-04-27T02:46:57;100869.52;;;4.94;69.70
62946;BME280;52164;52.212;-1.010;2023-04-27T02:49:22;100870.58;;;4.95;70.06
62946;BME280;52164;52.212;-1.010;2023-04-27T02:51:49;100870.65;;;4.97;69.85
62946;BME280;52164;52.212;-1.010;2023-04-27T02:54:14;100871.22;;;4.98;69.82
62946;BME280;52164;52.212;-1.010;2023-04-27T02:56:40;100871.23;;;4.99;70.19
62946;BME280;52164;52.212;-1.010;2023-04-27T02:59:05;100870.69;;;4.98;70.30
62946;BME280;52164;52.212;-1.010;2023-04-27T03:01:31;100866.93;;;4.96;70.08
62946;BME280;52164;52.212;-1.010;2023-04-27T03:03:56;100861.45;;;4.97;70.07
62946;BME280;52164;52.212;-1.010;2023-04-27T03:06:21;100860.05;;;4.97;70.21
62946;BME280;52164;52.212;-1.010;2023-04-27T03:08:47;100856.48;;;4.96;70.08
62946;BME280;52164;52.212;-1.010;2023-04-27T03:11:12;100857.08;;;4.92;70.11
62946;BME280;52164;52.212;-1.010;2023-04-27T03:13:37;100853.23;;;4.87;70.23
62946;BME280;52164;52.212;-1.010;2023-04-27T03:16:07;100854.14;;;4.82;70.31
62946;BME280;52164;52.212;-1.010;2023-04-27T03:18:32;100857.34;;;4.77;70.36
62946;BME280;52164;52.212;-1.010;2023-04-27T03:21:05;100858.46;;;4.72;70.07
62946;BME280;52164;52.212;-1.010;2023-04-27T03:23:31;100859.71;;;4.67;70.23
62946;BME280;52164;52.212;-1.010;2023-04-27T03:25:56;100859.73;;;4.62;70.46
62946;BME280;52164;52.212;-1.010;2023-04-27T03:28:21;100862.45;;;4.58;70.64
62946;BME280;52164;52.212;-1.010;2023-04-27T03:30:47;100863.23;;;4.54;70.58
62946;BME280;52164;52.212;-1.010;2023-04-27T03:33:12;100859.80;;;4.52;70.37
62946;BME280;52164;52.212;-1.010;2023-04-27T03:35:38;100856.35;;;4.49;70.83
62946;BME280;52164;52.212;-1.010;2023-04-27T03:38:03;100853.94;;;4.46;70.64
62946;BME280;52164;52.212;-1.010;2023-04-27T03:40:32;100851.02;;;4.42;70.82
62946;BME280;52164;52.212;-1.010;2023-04-27T03:42:57;100845.45;;;4.39;70.75
62946;BME280;52164;52.212;-1.010;2023-04-27T03:45:23;100847.52;;;4.37;71.08
62946;BME280;52164;52.212;-1.010;2023-04-27T03:47:48;100844.23;;;4.33;71.39
62946;BME280;52164;52.212;-1.010;2023-04-27T03:50:14;100841.95;;;4.28;71.14
62946;BME280;52164;52.212;-1.010;2023-04-27T03:52:41;100838.63;;;4.24;71.26
62946;BME280;52164;52.212;-1.010;2023-04-27T03:55:07;100842.06;;;4.21;71.41
62946;BME280;52164;52.212;-1.010;2023-04-27T03:57:32;100840.92;;;4.18;71.26
62946;BME280;52164;52.212;-1.010;2023-04-27T03:59:58;100833.41;;;4.15;71.61
62946;BME280;52164;52.212;-1.010;2023-04-27T04:02:23;100828.61;;;4.15;71.48
62946;BME280;52164;52.212;-1.010;2023-04-27T04:04:48;100831.45;;;4.15;71.70
62946;BME280;52164;52.212;-1.010;2023-04-27T04:07:14;100826.28;;;4.13;71.86
62946;BME280;52164;52.212;-1.010;2023-04-27T04:09:39;100822.15;;;4.11;71.84
62946;BME280;52164;52.212;-1.010;2023-04-27T04:12:05;100820.63;;;4.08;71.87
62946;BME280;52164;52.212;-1.010;2023-04-27T04:14:30;100821.09;;;4.05;72.12
62946;BME280;52164;52.212;-1.010;2023-04-27T04:16:55;100818.87;;;4.02;72.06
62946;BME280;52164;52.212;-1.010;2023-04-27T04:19:21;100814.58;;;4.00;71.92
62946;BME280;52164;52.212;-1.010;2023-04-27T04:21:46;100807.86;;;4.00;71.61
62946;BME280;52164;52.212;-1.010;2023-04-27T04:24:11;100810.11;;;3.99;71.50
62946;BME280;52164;52.212;-1.010;2023-04-27T04:26:43;100810.30;;;3.99;71.60
62946;BME280;52164;52.212;-1.010;2023-04-27T04:29:08;100810.13;;;3.99;71.60
62946;BME280;52164;52.212;-1.010;2023-04-27T04:31:34;100810.51;;;4.00;71.60
62946;BME280;52164;52.212;-1.010;2023-04-27T04:34:00;100819.23;;;4.02;71.88
62946;BME280;52164;52.212;-1.010;2023-04-27T04:36:25;100814.89;;;4.04;71.82
62946;BME280;52164;52.212;-1.010;2023-04-27T04:38:51;100814.77;;;4.06;71.60
62946;BME280;52164;52.212;-1.010;2023-04-27T04:41:18;100812.84;;;4.07;71.57
62946;BME280;52164;52.212;-1.010;2023-04-27T04:43:44;100809.59;;;4.10;71.53
62946;BME280;52164;52.212;-1.010;2023-04-27T04:46:09;100802.77;;;4.12;71.82
62946;BME280;52164;52.212;-1.010;2023-04-27T04:48:35;100808.92;;;4.12;71.60
62946;BME280;52164;52.212;-1.010;2023-04-27T04:51:00;100812.44;;;4.11;71.64
62946;BME280;52164;52.212;-1.010;2023-04-27T04:53:28;100815.33;;;4.08;71.77
62946;BME280;52164;52.212;-1.010;2023-04-27T04:55:53;100812.96;;;4.05;71.71
62946;BME280;52164;52.212;-1.010;2023-04-27T04:58:19;100804.08;;;4.03;71.78
62946;BME280;52164;52.212;-1.010;2023-04-27T05:00:44;100800.60;;;4.05;72.09
62946;BME280;52164;52.212;-1.010;2023-04-27T05:03:09;100791.80;;;4.06;72.44
62946;BME280;52164;52.212;-1.010;2023-04-27T05:05:35;100783.16;;;4.07;72.36
62946;BME280;52164;52.212;-1.010;2023-04-27T05:08:00;100786.76;;;4.09;72.03
62946;BME280;52164;52.212;-1.010;2023-04-27T05:10:25;100789.31;;;4.11;71.73
62946;BME280;52164;52.212;-1.010;2023-04-27T05:12:51;100789.13;;;4.12;71.60
62946;BME280;52164;52.212;-1.010;2023-04-27T05:15:16;100792.16;;;4.12;71.60
62946;BME280;52164;52.212;-1.010;2023-04-27T05:17:42;100791.58;;;4.11;71.56
62946;BME280;52164;52.212;-1.010;2023-04-27T05:20:07;100794.41;;;4.11;71.36
62946;BME280;52164;52.212;-1.010;2023-04-27T05:22:33;100801.14;;;4.11;71.76
62946;BME280;52164;52.212;-1.010;2023-04-27T05:24:59;100800.55;;;4.15;71.90
62946;BME280;52164;52.212;-1.010;2023-04-27T05:27:24;100803.52;;;4.19;71.91
62946;BME280;52164;52.212;-1.010;2023-04-27T05:29:50;100801.88;;;4.24;72.09
62946;BME280;52164;52.212;-1.010;2023-04-27T05:32:15;100799.20;;;4.29;72.04
62946;BME280;52164;52.212;-1.010;2023-04-27T05:34:40;100798.30;;;4.34;72.04
62946;BME280;52164;52.212;-1.010;2023-04-27T05:37:08;100797.73;;;4.39;72.16
62946;BME280;52164;52.212;-1.010;2023-04-27T05:39:34;100793.98;;;4.43;72.08
62946;BME280;52164;52.212;-1.010;2023-04-27T05:41:59;100793.63;;;4.50;71.93
62946;BME280;52164;52.212;-1.010;2023-04-27T05:44:26;100792.39;;;4.55;72.04
62946;BME280;52164;52.212;-1.010;2023-04-27T05:46:53;100795.77;;;4.62;72.00
62946;BME280;52164;52.212;-1.010;2023-04-27T05:49:19;100798.58;;;4.68;71.84
62946;BME280;52164;52.212;-1.010;2023-04-27T05:51:44;100799.64;;;4.74;72.00
62946;BME280;52164;52.212;-1.010;2023-04-27T05:54:11;100795.04;;;4.81;71.99
62946;BME280;52164;52.212;-1.010;2023-04-27T05:56:37;100799.48;;;4.87;72.24
62946;BME280;52164;52.212;-1.010;2023-04-27T05:59:02;100797.19;;;4.95;72.13
62946;BME280;52164;52.212;-1.010;2023-04-27T06:01:27;100796.88;;;5.02;71.90
62946;BME280;52164;52.212;-1.010;2023-04-27T06:03:53;100796.05;;;5.11;72.04
62946;BME280;52164;52.212;-1.010;2023-04-27T06:06:18;100794.02;;;5.21;71.79
62946;BME280;52164;52.212;-1.010;2023-04-27T06:08:43;100787.46;;;5.35;71.91
62946;BME280;52164;52.212;-1.010;2023-04-27T06:11:08;100782.21;;;5.52;72.01
62946;BME280;52164;52.212;-1.010;2023-04-27T06:13:34;100777.30;;;5.68;71.98
62946;BME280;52164;52.212;-1.010;2023-04-27T06:15:59;100778.78;;;5.85;72.08
62946;BME280;52164;52.212;-1.010;2023-04-27T06:18:25;100776.73;;;6.04;71.91
62946;BME280;52164;52.212;-1.010;2023-04-27T06:20:51;100776.96;;;6.22;71.79
62946;BME280;52164;52.212;-1.010;2023-04-27T06:23:16;100770.08;;;6.39;71.56
62946;BME280;52164;52.212;-1.010;2023-04-27T06:25:41;100772.02;;;6.56;71.30
62946;BME280;52164;52.212;-1.010;2023-04-27T06:28:06;100766.98;;;6.70;71.34
62946;BME280;52164;52.212;-1.010;2023-04-27T06:30:32;100767.99;;;6.86;71.15
62946;BME280;52164;52.212;-1.010;2023-04-27T06:32:57;100769.84;;;7.00;70.83
62946;BME280;52164;52.212;-1.010;2023-04-27T06:35:22;100766.48;;;7.10;70.77
62946;BME280;52164;52.212;-1.010;2023-04-27T06:37:48;100761.48;;;7.18;70.39
62946;BME280;52164;52.212;-1.010;2023-04-27T06:40:13;100762.70;;;7.26;70.16
62946;BME280;52164;52.212;-1.010;2023-04-27T06:42:42;100764.92;;;7.32;70.61
62946;BME280;52164;52.212;-1.010;2023-04-27T06:45:08;100765.05;;;7.40;70.23
62946;BME280;52164;52.212;-1.010;2023-04-27T06:47:33;100760.77;;;7.48;70.19
62946;BME280;52164;52.212;-1.010;2023-04-27T06:49:58;100758.98;;;7.59;69.87
62946;BME280;52164;52.212;-1.010;2023-04-27T06:52:24;100755.77;;;7.69;69.79
62946;BME280;52164;52.212;-1.010;2023-04-27T06:54:51;100753.60;;;7.79;69.86
62946;BME280;52164;52.212;-1.010;2023-04-27T06:57:16;100757.14;;;7.89;69.40
62946;BME280;52164;52.212;-1.010;2023-04-27T06:59:42;100756.01;;;7.98;69.65
62946;BME280;52164;52.212;-1.010;2023-04-27T07:02:07;100758.64;;;8.07;69.22
62946;BME280;52164;52.212;-1.010;2023-04-27T07:04:32;100758.06;;;8.17;69.39
62946;BME280;52164;52.212;-1.010;2023-04-27T07:06:57;100757.13;;;8.26;68.98
62946;BME280;52164;52.212;-1.010;2023-04-27T07:09:23;100758.66;;;8.35;68.72
62946;BME280;52164;52.212;-1.010;2023-04-27T07:11:48;100760.89;;;8.42;68.53
62946;BME280;52164;52.212;-1.010;2023-04-27T07:14:13;100757.80;;;8.49;68.05
62946;BME280;52164;52.212;-1.010;2023-04-27T07:16:39;100757.19;;;8.58;67.63
62946;BME280;52164;52.212;-1.010;2023-04-27T07:19:04;100760.30;;;8.65;67.34
62946;BME280;52164;52.212;-1.010;2023-04-27T07:21:30;100757.91;;;8.74;67.13
62946;BME280;52164;52.212;-1.010;2023-04-27T07:23:55;100762.84;;;8.85;66.90
62946;BME280;52164;52.212;-1.010;2023-04-27T07:26:21;100764.58;;;8.98;66.90
62946;BME280;52164;52.212;-1.010;2023-04-27T07:28:48;100764.52;;;9.08;66.30
62946;BME280;52164;52.212;-1.010;2023-04-27T07:31:14;100759.95;;;9.15;65.82
62946;BME280;52164;52.212;-1.010;2023-04-27T07:33:40;100758.77;;;9.23;66.04
62946;BME280;52164;52.212;-1.010;2023-04-27T07:36:05;100758.70;;;9.33;65.64
62946;BME280;52164;52.212;-1.010;2023-04-27T07:38:31;100758.96;;;9.43;65.39
62946;BME280;52164;52.212;-1.010;2023-04-27T07:40:57;100757.78;;;9.51;65.25
62946;BME280;52164;52.212;-1.010;2023-04-27T07:43:27;100753.93;;;9.59;65.12
62946;BME280;52164;52.212;-1.010;2023-04-27T07:45:52;100747.58;;;9.68;65.16
62946;BME280;52164;52.212;-1.010;2023-04-27T07:48:19;100741.94;;;9.78;64.84
62946;BME280;52164;52.212;-1.010;2023-04-27T07:50:45;100744.34;;;9.89;64.66
62946;BME280;52164;52.212;-1.010;2023-04-27T07:53:10;100744.96;;;10.02;64.41
62946;BME280;52164;52.212;-1.010;2023-04-27T07:55:36;100746.99;;;10.16;64.17
62946;BME280;52164;52.212;-1.010;2023-04-27T07:58:02;100752.27;;;10.30;63.87
62946;BME280;52164;52.212;-1.010;2023-04-27T08:00:27;100755.55;;;10.44;63.72
62946;BME280;52164;52.212;-1.010;2023-04-27T08:02:53;100757.56;;;10.56;63.24
62946;BME280;52164;52.212;-1.010;2023-04-27T08:05:18;100761.88;;;10.64;62.52
62946;BME280;52164;52.212;-1.010;2023-04-27T08:07:43;100768.70;;;10.71;62.40
62946;BME280;52164;52.212;-1.010;2023-04-27T08:10:09;100763.52;;;10.78;62.36
62946;BME280;52164;52.212;-1.010;2023-04-27T08:12:35;100762.13;;;10.84;62.22
62946;BME280;52164;52.212;-1.010;2023-04-27T08:15:00;100759.48;;;10.91;61.71
62946;BME280;52164;52.212;-1.010;2023-04-27T08:17:28;100763.94;;;10.95;61.29
62946;BME280;52164;52.212;-1.010;2023-04-27T08:19:53;100763.95;;;11.00;61.36
62946;BME280;52164;52.212;-1.010;2023-04-27T08:22:18;100756.83;;;11.10;61.69
62946;BME280;52164;52.212;-1.010;2023-04-27T08:24:43;100755.05;;;11.20;61.47
62946;BME280;52164;52.212;-1.010;2023-04-27T08:27:09;100752.92;;;11.29;61.18
62946;BME280;52164;52.212;-1.010;2023-04-27T08:29:34;100749.17;;;11.36;60.32
62946;BME280;52164;52.212;-1.010;2023-04-27T08:32:00;100746.68;;;11.43;59.92
62946;BME280;52164;52.212;-1.010;2023-04-27T08:34:26;100740.59;;;11.55;59.64
62946;BME280;52164;52.212;-1.010;2023-04-27T08:36:51;100734.69;;;11.71;59.40
62946;BME280;52164;52.212;-1.010;2023-04-27T08:39:18;100730.56;;;11.83;59.05
62946;BME280;52164;52.212;-1.010;2023-04-27T08:41:43;100728.05;;;11.95;58.95
62946;BME280;52164;52.212;-1.010;2023-04-27T08:44:09;100730.73;;;12.08;58.73
62946;BME280;52164;52.212;-1.010;2023-04-27T08:46:35;100725.50;;;12.17;58.27
62946;BME280;52164;52.212;-1.010;2023-04-27T08:49:01;100720.09;;;12.29;57.60
62946;BME280;52164;52.212;-1.010;2023-04-27T08:51:26;100709.30;;;12.41;57.10
62946;BME280;52164;52.212;-1.010;2023-04-27T08:53:53;100701.01;;;12.54;57.23
62946;BME280;52164;52.212;-1.010;2023-04-27T08:56:20;100694.14;;;12.67;56.84
62946;BME280;52164;52.212;-1.010;2023-04-27T08:58:47;100686.52;;;12.84;56.79
62946;BME280;52164;52.212;-1.010;2023-04-27T09:01:12;100685.36;;;12.96;56.36
62946;BME280;52164;52.212;-1.010;2023-04-27T09:03:38;100690.48;;;13.04;55.51
62946;BME280;52164;52.212;-1.010;2023-04-27T09:06:03;100688.10;;;13.12;55.50
62946;BME280;52164;52.212;-1.010;2023-04-27T09:08:46;100691.43;;;13.21;55.83
62946;BME280;52164;52.212;-1.010;2023-04-27T09:11:13;100683.69;;;13.26;55.38
62946;BME280;52164;52.212;-1.010;2023-04-27T09:13:39;100685.97;;;13.34;55.57
62946;BME280;52164;52.212;-1.010;2023-04-27T09:16:04;100687.34;;;13.43;54.99
62946;BME280;52164;52.212;-1.010;2023-04-27T09:18:34;100685.86;;;13.48;54.59
62946;BME280;52164;52.212;-1.010;2023-04-27T09:21:00;100687.43;;;13.53;54.51
62946;BME280;52164;52.212;-1.010;2023-04-27T09:23:28;100677.17;;;13.56;54.12
62946;BME280;52164;52.212;-1.010;2023-04-27T09:25:55;100669.77;;;13.62;53.73
62946;BME280;52164;52.212;-1.010;2023-04-27T09:28:21;100665.81;;;13.63;53.13
62946;BME280;52164;52.212;-1.010;2023-04-27T09:30:55;100671.91;;;13.64;52.99
62946;BME280;52164;52.212;-1.010;2023-04-27T09:33:22;100670.86;;;13.61;52.61
62946;BME280;52164;52.212;-1.010;2023-04-27T09:35:47;100672.65;;;13.62;52.66
62946;BME280;52164;52.212;-1.010;2023-04-27T09:38:13;100666.69;;;13.65;52.60
62946;BME280;52164;52.212;-1.010;2023-04-27T09:40:38;100664.88;;;13.67;51.97
62946;BME280;52164;52.212;-1.010;2023-04-27T09:43:05;100656.42;;;13.70;51.58
62946;BME280;52164;52.212;-1.010;2023-04-27T09:45:31;100650.30;;;13.71;51.23
62946;BME280;52164;52.212;-1.010;2023-04-27T09:47:57;100646.70;;;13.73;51.34
62946;BME280;52164;52.212;-1.010;2023-04-27T09:50:22;100640.02;;;13.77;51.08
62946;BME280;52164;52.212;-1.010;2023-04-27T09:52:48;100639.41;;;13.83;51.02
62946;BME280;52164;52.212;-1.010;2023-04-27T09:55:15;100640.30;;;13.83;50.98
62946;BME280;52164;52.212;-1.010;2023-04-27T09:58:21;100636.58;;;13.81;50.35
62946;BME280;52164;52.212;-1.010;2023-04-27T10:00:35;100624.16;;;13.83;50.23
62946;BME280;52164;52.212;-1.010;2023-04-27T10:03:14;100618.90;;;13.89;49.93
62946;BME280;52164;52.212;-1.010;2023-04-27T10:05:49;100617.33;;;13.99;49.89
62946;BME280;52164;52.212;-1.010;2023-04-27T10:08:23;100617.41;;;14.08;50.00
62946;BME280;52164;52.212;-1.010;2023-04-27T10:10:48;100625.19;;;14.17;49.05
62946;BME280;52164;52.212;-1.010;2023-04-27T10:13:23;100629.25;;;14.22;47.73
62946;BME280;52164;52.212;-1.010;2023-04-27T10:15:48;100631.22;;;14.21;46.80
62946;BME280;52164;52.212;-1.010;2023-04-27T10:18:23;100629.23;;;14.22;46.90
62946;BME280;52164;52.212;-1.010;2023-04-27T10:20:52;100627.55;;;14.29;47.34
62946;BME280;52164;52.212;-1.010;2023-04-27T10:23:24;100619.34;;;14.38;46.98
62946;BME280;52164;52.212;-1.010;2023-04-27T10:25:50;100622.68;;;14.43;47.15
62946;BME280;52164;52.212;-1.010;2023-04-27T10:28:17;100616.78;;;14.40;46.49
62946;BME280;52164;52.212;-1.010;2023-04-27T10:30:43;100611.85;;;14.34;46.43
62946;BME280;52164;52.212;-1.010;2023-04-27T10:33:10;100604.61;;;14.26;46.32
62946;BME280;52164;52.212;-1.010;2023-04-27T10:35:40;100600.84;;;14.13;46.22
62946;BME280;52164;52.212;-1.010;2023-04-27T10:40:32;100603.48;;;13.88;46.29
62946;BME280;52164;52.212;-1.010;2023-04-27T10:43:07;100597.41;;;13.85;46.44
62946;BME280;52164;52.212;-1.010;2023-04-27T10:45:32;100588.56;;;13.89;46.29
62946;BME280;52164;52.212;-1.010;2023-04-27T10:47:59;100583.67;;;13.94;46.00
62946;BME280;52164;52.212;-1.010;2023-04-27T10:50:25;100584.17;;;13.97;45.99
62946;BME280;52164;52.212;-1.010;2023-04-27T10:52:50;100582.70;;;13.99;46.17
62946;BME280;52164;52.212;-1.010;2023-04-27T10:57:46;100571.60;;;14.11;45.83
62946;BME280;52164;52.212;-1.010;2023-04-27T11:00:12;100567.41;;;14.16;45.36
62946;BME280;52164;52.212;-1.010;2023-04-27T11:02:39;100567.48;;;14.23;45.27
62946;BME280;52164;52.212;-1.010;2023-04-27T11:05:14;100569.36;;;14.30;45.36
62946;BME280;52164;52.212;-1.010;2023-04-27T11:07:39;100565.90;;;14.34;45.56
62946;BME280;52164;52.212;-1.010;2023-04-27T11:10:06;100561.01;;;14.36;45.88
62946;BME280;52164;52.212;-1.010;2023-04-27T11:12:31;100555.14;;;14.45;45.92
62946;BME280;52164;52.212;-1.010;2023-04-27T11:14:57;100549.52;;;14.48;45.23
62946;BME280;52164;52.212;-1.010;2023-04-27T11:17:27;100544.02;;;14.44;45.00
62946;BME280;52164;52.212;-1.010;2023-04-27T11:19:53;100538.05;;;14.46;45.31
62946;BME280;52164;52.212;-1.010;2023-04-27T11:22:21;100537.65;;;14.49;45.09
62946;BME280;52164;52.212;-1.010;2023-04-27T11:24:48;100535.83;;;14.51;45.22
62946;BME280;52164;52.212;-1.010;2023-04-27T11:27:13;100534.70;;;14.54;45.56
62946;BME280;52164;52.212;-1.010;2023-04-27T11:29:38;100529.70;;;14.52;45.29
62946;BME280;52164;52.212;-1.010;2023-04-27T11:32:04;100528.29;;;14.51;45.24
62946;BME280;52164;52.212;-1.010;2023-04-27T11:34:30;100522.63;;;14.46;45.04
62946;BME280;52164;52.212;-1.010;2023-04-27T11:37:01;100523.27;;;14.40;44.84
62946;BME280;52164;52.212;-1.010;2023-04-27T11:39:32;100518.41;;;14.39;45.04
62946;BME280;52164;52.212;-1.010;2023-04-27T11:42:30;100513.96;;;14.37;45.04
62946;BME280;52164;52.212;-1.010;2023-04-27T11:44:52;100512.24;;;14.32;45.05
62946;BME280;52164;52.212;-1.010;2023-04-27T11:47:18;100508.90;;;14.27;45.27
62946;BME280;52164;52.212;-1.010;2023-04-27T11:49:45;100505.56;;;14.23;45.52
62946;BME280;52164;52.212;-1.010;2023-04-27T11:52:11;100507.63;;;14.16;45.44
62946;BME280;52164;52.212;-1.010;2023-04-27T11:54:38;100506.64;;;14.10;45.24
62946;BME280;52164;52.212;-1.010;2023-04-27T11:57:03;100498.46;;;14.06;45.71
62946;BME280;52164;52.212;-1.010;2023-04-27T11:59:32;100489.33;;;14.05;45.72
62946;BME280;52164;52.212;-1.010;2023-04-27T12:01:57;100482.71;;;14.14;46.23
62946;BME280;52164;52.212;-1.010;2023-04-27T12:04:22;100480.95;;;14.24;45.95
62946;BME280;52164;52.212;-1.010;2023-04-27T12:06:48;100478.52;;;14.31;45.83
62946;BME280;52164;52.212;-1.010;2023-04-27T12:09:14;100470.60;;;14.32;45.97
62946;BME280;52164;52.212;-1.010;2023-04-27T12:11:40;100475.15;;;14.27;45.98
62946;BME280;52164;52.212;-1.010;2023-04-27T12:14:05;100468.25;;;14.21;46.39
62946;BME280;52164;52.212;-1.010;2023-04-27T12:16:32;100468.40;;;14.11;46.63
62946;BME280;52164;52.212;-1.010;2023-04-27T12:18:58;100475.32;;;14.05;46.53
62946;BME280;52164;52.212;-1.010;2023-04-27T12:21:23;100471.73;;;14.05;46.71
62946;BME280;52164;52.212;-1.010;2023-04-27T12:23:52;100469.09;;;14.13;46.67
62946;BME280;52164;52.212;-1.010;2023-04-27T12:26:17;100469.55;;;14.19;46.60
62946;BME280;52164;52.212;-1.010;2023-04-27T12:28:44;100470.40;;;14.22;46.63
62946;BME280;52164;52.212;-1.010;2023-04-27T12:31:12;100467.06;;;14.28;46.60
62946;BME280;52164;52.212;-1.010;2023-04-27T12:33:37;100468.86;;;14.39;46.91
62946;BME280;52164;52.212;-1.010;2023-04-27T12:36:03;100469.40;;;14.51;46.77
62946;BME280;52164;52.212;-1.010;2023-04-27T12:38:28;100469.23;;;14.61;47.25
62946;BME280;52164;52.212;-1.010;2023-04-27T12:40:53;100467.80;;;14.71;47.21
62946;BME280;52164;52.212;-1.010;2023-04-27T12:43:19;100460.38;;;14.76;47.02
62946;BME280;52164;52.212;-1.010;2023-04-27T12:45:44;100466.08;;;14.78;46.70